createdAt,value
2019-05-29T00:02:31.202Z,101104.57
2019-05-29T00:10:52.472Z,101114.70
2019-05-29T00:19:14.547Z,101126.29
2019-05-29T00:27:36.425Z,101133.28
2019-05-29T00:35:57.888Z,101145.33
2019-05-29T00:44:33.466Z,101156.90
2019-05-29T00:52:42.078Z,101171.84
2019-05-29T01:01:03.594Z,101173.11
2019-05-29T01:09:25.102Z,101184.97
2019-05-29T01:17:46.578Z,101190.17
2019-05-29T01:26:07.747Z,101201.44
2019-05-29T01:34:29.750Z,101212.87
2019-05-29T01:42:51.020Z,101219.41
2019-05-29T01:51:12.250Z,101231.57
2019-05-29T01:59:33.381Z,101239.86
2019-05-29T02:07:55.906Z,101237.20
2019-05-29T02:16:18.468Z,101250.71
2019-05-29T02:24:39.903Z,101262.98
2019-05-29T02:33:02.487Z,101266.73
2019-05-29T02:41:25.447Z,101274.83
2019-05-29T02:49:46.384Z,101280.48
2019-05-29T02:58:07.525Z,101287.22
2019-05-29T03:06:30.301Z,101295.45
2019-05-29T03:14:51.546Z,101309.66
2019-05-29T03:23:12.717Z,101315.68
2019-05-29T03:31:41.836Z,101320.47
2019-05-29T03:39:56.986Z,101326.52
2019-05-29T03:48:18.532Z,101334.94
2019-05-29T03:56:39.752Z,101351.34
2019-05-29T04:05:01.306Z,101347.78
2019-05-29T04:13:22.739Z,101354.89
2019-05-29T04:21:44.071Z,101361.56
2019-05-29T04:30:05.340Z,101364.91
2019-05-29T04:38:28.517Z,101382.34
2019-05-29T04:47:07.039Z,101400.72
2019-05-29T04:55:12.979Z,101415.16
2019-05-29T05:03:35.183Z,101428.33
2019-05-29T05:11:56.371Z,101427.05
2019-05-29T05:20:17.513Z,101443.88
2019-05-29T05:28:38.777Z,101460.78
2019-05-29T05:36:59.998Z,101472.50
2019-05-29T05:45:21.173Z,101473.05
2019-05-29T05:53:42.309Z,101482.80
